Latest Weather Observations for Melbourne Airport

IDV60801

Issued at 11:02 am EST Tuesday 21 May 2024 (issued every 10 minutes, with the page automatically refreshed every 10 minutes)

About weather observations | Map of weather stations | Latest weather observations for VIC | Other Formats
Station Details ID: 086282 Name: MELBOURNE AIRPORT Lat: -37.67 Lon: 144.83 Height: 113.4 m
Data from the previous 72 hours. | See also: Recent months at Melbourne Airport
Date/Time
EST
Temp
°C
App
Temp
°C
Dew
Point
°C
Rel
Hum
%
Delta-T
°C
Wind Press
QNH
hPa
Press
MSL
hPa
Rain since
9am
mm
Dir  Spd
km/h
Gust
km/h
Spd
kts
Gust
kts
21/10:47am 10.8 10.3 9.2 90 0.8 SW 2 7 1 4 1031.2 1031.3 0.0
21/10:30am 10.4 8.9 9.2 92 0.6 W 7 9 4 5 1031.1 1031.2 0.0
21/10:26am 10.3 8.4 9.1 92 0.6 W 9 9 5 5 1031.1 1031.2 0.0
21/10:19am 10.1 8.2 8.9 92 0.6 W 9 13 5 7 1031.0 1031.1 0.0
21/10:08am 10.0 7.3 9.1 94 0.4 WSW 13 17 7 9 1031.1 1031.2 0.0
21/10:00am 10.1 7.5 9.3 95 0.4 WSW 13 15 7 8 1031.1 1031.2 0.0
21/09:30am 9.6 6.5 9.0 96 0.3 SW 15 17 8 9 1031.0 1031.1 0.0
21/09:19am 9.6 6.9 9.0 96 0.3 WSW 13 19 7 10 1030.9 1031.0 0.0
21/09:00am 9.3 6.5 8.7 96 0.3 W 13 15 7 8 1030.8 1030.9 3.4
21/08:53am 9.1 6.3 8.5 96 0.3 W 13 15 7 8 1030.8 1030.9 3.4
21/08:30am 8.8 6.3 8.0 95 0.4 W 11 13 6 7 1030.7 1030.8 3.4
21/08:09am 8.8 6.5 7.6 92 0.6 W 9 11 5 6 1030.5 1030.6 3.4
21/08:00am 8.8 6.5 7.6 92 0.6 W 9 11 5 6 1030.5 1030.6 3.4
21/07:49am 8.7 6.7 7.2 90 0.7 W 7 9 4 5 1030.4 1030.5 3.4
21/07:30am 8.6 6.2 7.2 91 0.7 W 9 9 5 5 1030.2 1030.3 3.4
21/07:00am 8.7 6.4 7.6 93 0.5 WNW 9 11 5 6 1029.9 1030.0 3.4
21/06:30am 8.7 6.4 7.6 93 0.5 W 9 11 5 6 1029.9 1030.0 3.4
21/06:00am 8.8 6.9 7.4 91 0.7 SW 7 9 4 5 1029.8 1029.9 3.4
21/05:30am 9.1 7.3 8.0 93 0.5 SSW 7 9 4 5 1029.7 1029.8 3.4
21/05:00am 9.4 7.4 8.8 96 0.3 SW 9 11 5 6 1029.6 1029.7 3.4
21/04:30am 9.6 7.7 9.0 96 0.3 SSW 9 11 5 6 1029.5 1029.6 3.4
21/04:04am 9.7 7.4 9.1 96 0.3 SSW 11 15 6 8 1029.6 1029.7 3.4
21/04:00am 9.7 7.0 9.1 96 0.3 SSW 13 15 7 8 1029.6 1029.7 3.4
21/03:30am 9.8 7.6 9.2 96 0.3 SSW 11 15 6 8 1029.7 1029.8 3.0
21/03:23am 9.8 7.2 9.2 96 0.3 SSW 13 17 7 9 1029.7 1029.8 3.0
21/03:00am 9.8 7.6 9.3 97 0.2 S 11 13 6 7 1029.7 1029.8 3.0
21/02:57am 9.7 7.5 9.2 97 0.2 S 11 13 6 7 1029.8 1029.9 3.0
21/02:30am 9.6 8.1 9.1 97 0.2 SSW 7 11 4 6 1029.9 1030.0 3.0
21/02:15am 9.6 7.3 9.0 96 0.3 SW 11 15 6 8 1030.0 1030.1 2.6
21/02:00am 9.8 7.9 9.2 96 0.3 SW 9 11 5 6 1030.0 1030.1 2.4
21/01:30am 9.9 8.4 9.3 96 0.3 SSW 7 11 4 6 1029.9 1030.0 2.2
21/01:21am 9.9 8.4 9.3 96 0.3 S 7 9 4 5 1030.0 1030.1 2.2
21/01:06am 10.0 7.8 9.4 96 0.3 S 11 17 6 9 1030.0 1030.1 2.0
21/01:00am 10.0 7.4 9.2 95 0.4 S 13 19 7 10 1030.0 1030.1 2.0
21/12:44am 10.0 7.0 9.4 96 0.3 SSW 15 22 8 12 1030.1 1030.2 2.0
21/12:30am 9.9 7.3 9.3 96 0.3 SW 13 17 7 9 1030.1 1030.2 1.6
21/12:00am 9.8 7.6 9.2 96 0.3 SW 11 19 6 10 1030.1 1030.2 1.4
 
Date/Time
EST
Temp
°C
App
Temp
°C
Dew
Point
°C
Rel
Hum
%
Delta-T
°C
Wind Press
QNH
hPa
Press
MSL
hPa
Rain since
9am
mm
Dir  Spd
km/h
Gust
km/h
Spd
kts
Gust
kts
20/11:57pm 9.9 7.7 9.3 96 0.3 SW 11 13 6 7 1030.1 1030.2 1.4
20/11:30pm 9.8 7.6 9.2 96 0.3 SW 11 15 6 8 1030.3 1030.4 1.4
20/11:20pm 9.8 7.6 9.2 96 0.3 SSW 11 15 6 8 1030.2 1030.3 1.4
20/11:08pm 9.8 7.1 9.0 95 0.4 SW 13 15 7 8 1030.2 1030.3 1.2
20/11:00pm 9.8 7.1 9.0 95 0.4 SW 13 15 7 8 1030.1 1030.2 1.2
20/10:35pm 9.8 8.3 9.0 95 0.4 SW 7 13 4 7 1030.2 1030.3 1.0
20/10:30pm 9.8 7.9 9.0 95 0.4 SW 9 13 5 7 1030.2 1030.3 1.0
20/10:00pm 9.8 7.9 9.0 95 0.4 SW 9 9 5 5 1030.2 1030.3 1.0
20/09:30pm 9.9 8.4 9.1 95 0.4 SSW 7 11 4 6 1030.2 1030.3 1.0
20/09:16pm 9.9 8.0 9.1 95 0.4 SSW 9 13 5 7 1030.3 1030.4 0.6
20/09:00pm 9.7 7.7 8.5 92 0.6 SW 9 9 5 5 1030.2 1030.3 0.6
20/08:30pm 9.8 7.7 8.4 91 0.7 SW 9 11 5 6 1029.9 1030.0 0.6
20/08:00pm 10.5 8.5 8.6 88 0.9 SSW 9 11 5 6 1029.7 1029.8 0.6
20/07:30pm 10.5 7.8 9.1 91 0.7 SSW 13 19 7 10 1029.7 1029.8 0.6
20/07:00pm 9.9 8.2 8.5 91 0.7 SSW 7 9 4 5 1029.5 1029.6 0.6
20/06:30pm 10.7 8.7 8.8 88 0.9 S 9 11 5 6 1029.2 1029.3 0.6
20/06:00pm 10.8 8.4 8.7 87 1.0 S 11 15 6 8 1029.0 1029.1 0.6
20/05:30pm 11.2 8.5 8.8 85 1.2 S 13 17 7 9 1028.8 1028.9 0.6
20/05:00pm 11.4 8.6 8.6 83 1.4 S 13 15 7 8 1028.6 1028.7 0.6
20/04:30pm 11.0 6.9 8.8 86 1.1 SW 20 28 11 15 1028.3 1028.3 0.6
20/04:00pm 11.4 7.9 8.8 84 1.3 S 17 26 9 14 1028.2 1028.2 0.6
20/03:30pm 11.5 7.5 9.2 86 1.2 S 20 32 11 17 1028.0 1028.0 0.6
20/03:00pm 12.6 9.9 9.1 79 1.8 SSW 13 19 7 10 1027.6 1027.6 0.4
20/02:30pm 12.8 10.4 10.0 83 1.4 SSW 13 17 7 9 1027.6 1027.6 0.4
20/02:00pm 12.6 10.2 10.0 84 1.3 SSW 13 19 7 10 1027.6 1027.6 0.4
20/01:30pm 12.8 9.8 9.1 78 1.9 S 15 22 8 12 1027.6 1027.6 0.4
20/01:00pm 11.9 7.6 9.5 85 1.2 S 22 28 12 15 1028.0 1028.0 0.4
20/12:30pm 13.4 10.2 9.8 79 1.9 S 17 24 9 13 1027.9 1027.9 0.4
20/12:00pm 12.1 9.5 10.8 92 0.7 SW 15 20 8 11 1028.3 1028.3 0.4
20/11:54am 11.8 8.8 10.7 93 0.6 SW 17 22 9 12 1028.2 1028.2 0.4
20/11:30am 12.3 10.0 10.4 88 1.0 S 13 19 7 10 1028.4 1028.4 0.2
20/11:00am 12.6 10.6 11.5 93 0.6 S 13 15 7 8 1028.5 1028.5 0.2
20/10:59am 12.2 10.1 11.1 93 0.6 S 13 17 7 9 1028.5 1028.5 0.2
20/10:52am 11.5 9.1 10.1 91 0.7 SSW 13 19 7 10 1028.5 1028.5 0.2
20/10:30am 11.3 8.6 10.2 93 0.6 SW 15 19 8 10 1028.4 1028.4 0.2
20/10:19am 11.2 8.1 10.3 94 0.5 SW 17 24 9 13 1028.3 1028.3 0.2
20/10:00am 11.2 8.5 10.3 94 0.5 SW 15 19 8 10 1028.1 1028.1 0.2
20/09:40am 10.6 7.3 9.7 94 0.5 SW 17 24 9 13 1027.9 1027.9 0.2
20/09:30am 10.4 6.7 9.5 94 0.5 SW 19 24 10 13 1027.8 1027.8 0.2
20/09:18am 10.6 7.0 9.8 95 0.4 SW 19 24 10 13 1027.8 1027.8 0.0
20/09:00am 10.4 7.5 9.8 96 0.3 SW 15 20 8 11 1027.6 1027.6 1.2
20/08:48am 10.0 7.4 9.2 95 0.4 SW 13 17 7 9 1027.5 1027.5 1.2
20/08:44am 10.0 7.3 9.1 94 0.4 SW 13 17 7 9 1027.5 1027.5 1.2
20/08:30am 9.9 7.6 9.1 95 0.4 SSW 11 15 6 8 1027.3 1027.3 1.2
20/08:00am 8.8 5.9 8.2 96 0.3 WSW 13 17 7 9 1027.0 1027.0 1.2
20/07:30am 8.5 6.3 7.9 96 0.3 WSW 9 13 5 7 1026.6 1026.6 1.2
20/07:17am 8.3 5.3 7.7 96 0.3 WSW 13 17 7 9 1026.4 1026.4 1.2
20/07:00am 8.4 5.8 7.6 95 0.4 WSW 11 17 6 9 1026.2 1026.2 1.2
20/06:43am 8.6 6.0 7.8 95 0.4 WSW 11 13 6 7 1026.0 1026.0 1.2
20/06:30am 8.9 6.0 8.1 95 0.4 WSW 13 17 7 9 1026.0 1026.0 1.2
20/06:21am 9.0 6.1 8.2 95 0.4 WSW 13 17 7 9 1026.0 1026.0 1.2
20/06:00am 8.8 5.5 7.9 94 0.4 SW 15 19 8 10 1025.9 1025.9 1.2
20/05:55am 9.2 6.0 8.3 94 0.4 SW 15 19 8 10 1025.8 1025.8 1.2
20/05:30am 9.7 7.0 8.9 95 0.4 SW 13 19 7 10 1025.6 1025.6 1.2
20/05:17am 9.7 6.2 8.9 95 0.4 SW 17 20 9 11 1025.5 1025.5 1.2
20/05:08am 9.7 6.3 9.1 96 0.3 SW 17 24 9 13 1025.4 1025.4 0.8
20/05:00am 9.7 5.9 9.1 96 0.3 SW 19 26 10 14 1025.2 1025.2 0.8
20/04:30am 9.7 5.7 8.9 95 0.4 SW 20 30 11 16 1025.0 1025.0 0.8
20/04:17am 9.6 5.5 8.8 95 0.4 SW 20 28 11 15 1024.8 1024.8 0.6
20/04:05am 9.8 5.3 8.6 92 0.6 SW 22 30 12 16 1024.7 1024.7 0.4
20/04:00am 10.0 5.5 8.4 90 0.8 SW 22 30 12 16 1024.6 1024.6 0.4
20/03:30am 10.1 6.5 8.2 88 0.9 WSW 17 26 9 14 1024.5 1024.5 0.4
20/03:26am 10.1 6.0 8.0 87 1.0 WSW 19 26 10 14 1024.5 1024.5 0.4
20/03:00am 10.1 7.1 7.9 86 1.1 WSW 13 17 7 9 1024.6 1024.6 0.4
20/02:30am 10.0 7.0 7.8 86 1.1 WSW 13 17 7 9 1024.6 1024.6 0.4
20/02:00am 9.9 7.3 7.7 86 1.1 W 11 19 6 10 1024.5 1024.5 0.4
20/01:30am 9.9 6.5 7.8 87 1.0 WSW 15 22 8 12 1024.3 1024.4 0.4
20/01:00am 10.5 7.5 7.7 83 1.3 SW 13 20 7 11 1024.5 1024.5 0.4
20/12:30am 10.5 6.7 7.6 82 1.4 SW 17 22 9 12 1024.5 1024.5 0.4
20/12:00am 10.4 7.4 7.6 83 1.3 WSW 13 19 7 10 1024.6 1024.6 0.4
 
Date/Time
EST
Temp
°C
App
Temp
°C
Dew
Point
°C
Rel
Hum
%
Delta-T
°C
Wind Press
QNH
hPa
Press
MSL
hPa
Rain since
9am
mm
Dir  Spd
km/h
Gust
km/h
Spd
kts
Gust
kts
19/11:30pm 10.8 7.8 7.9 82 1.4 WSW 13 17 7 9 1024.5 1024.5 0.4
19/11:00pm 10.7 7.7 7.6 81 1.5 WSW 13 19 7 10 1024.7 1024.7 0.4
19/10:30pm 10.9 7.2 7.8 81 1.5 SW 17 22 9 12 1024.7 1024.7 0.4
19/10:00pm 11.2 7.3 8.6 84 1.3 WSW 19 26 10 14 1024.7 1024.7 0.4
19/09:30pm 11.4 7.5 8.6 83 1.4 WSW 19 24 10 13 1024.9 1024.9 0.4
19/09:00pm 11.5 7.9 8.5 82 1.5 WSW 17 20 9 11 1025.0 1025.0 0.4
19/08:30pm 11.8 7.7 8.5 80 1.6 WSW 20 28 11 15 1024.8 1024.8 0.4
19/08:00pm 11.6 8.7 8.3 80 1.6 WSW 13 17 7 9 1024.7 1024.7 0.4
19/07:30pm 11.7 9.3 8.6 81 1.5 WSW 11 13 6 7 1024.5 1024.5 0.4
19/07:00pm 11.8 10.3 9.0 83 1.4 WSW 7 11 4 6 1024.1 1024.2 0.4
19/06:30pm 12.1 9.8 8.9 81 1.6 WSW 11 13 6 7 1023.9 1024.0 0.4
19/06:00pm 12.0 9.6 8.8 81 1.6 W 11 15 6 8 1023.5 1023.6 0.4
19/05:30pm 12.3 9.6 9.1 81 1.6 WSW 13 19 7 10 1023.3 1023.4 0.4
19/05:00pm 13.0 9.9 10.4 84 1.3 WSW 17 24 9 13 1023.0 1023.1 0.4
19/04:30pm 13.4 11.4 11.5 88 1.0 WSW 13 15 7 8 1022.9 1023.0 0.4
19/04:00pm 13.4 11.0 11.5 88 1.0 W 15 20 8 11 1022.6 1022.7 0.4
19/03:30pm 13.2 10.5 11.8 91 0.8 W 17 20 9 11 1022.6 1022.7 0.4
19/03:21pm 13.2 10.5 11.6 90 0.9 WSW 17 22 9 12 1022.6 1022.7 0.4
19/03:00pm 13.5 10.4 11.7 89 1.0 W 19 30 10 16 1022.6 1022.7 0.2
19/02:30pm 13.2 10.2 11.9 92 0.7 WSW 19 28 10 15 1022.8 1022.9 0.2
19/02:20pm 13.0 8.9 11.6 91 0.7 SW 24 37 13 20 1022.8 1022.9 0.2
19/02:00pm 13.3 8.6 10.8 85 1.3 WSW 26 33 14 18 1022.8 1022.9 0.0
19/01:49pm 13.7 9.2 10.1 79 1.9 W 24 32 13 17 1022.8 1022.9 0.0
19/01:30pm 13.6 8.3 10.0 79 1.9 WSW 28 39 15 21 1022.8 1022.9 0.0
19/01:00pm 14.2 8.4 9.4 73 2.5 W 30 41 16 22 1023.0 1023.1 0.0
19/12:30pm 14.6 9.1 9.2 70 2.8 WSW 28 35 15 19 1023.5 1023.6 0.0
19/12:00pm 14.2 8.3 9.2 72 2.6 WSW 30 35 16 19 1024.0 1024.1 0.0
19/11:30am 13.7 8.2 9.0 73 2.4 WSW 28 37 15 20 1024.5 1024.5 0.0
19/11:00am 13.5 8.0 9.0 74 2.3 W 28 37 15 20 1024.8 1024.8 0.0
19/10:30am 12.6 7.7 8.3 75 2.1 W 24 37 13 20 1024.9 1024.9 0.0
19/10:00am 12.2 6.4 7.9 75 2.1 W 28 37 15 20 1025.2 1025.2 0.0
19/09:30am 11.6 7.2 7.3 75 2.1 W 20 28 11 15 1025.3 1025.3 0.0
19/09:00am 10.8 6.3 6.9 77 1.8 W 20 26 11 14 1025.3 1025.3 0.0
19/08:30am 10.3 5.7 6.5 77 1.8 WNW 20 32 11 17 1025.3 1025.3 0.0
19/08:00am 9.7 5.2 6.2 79 1.6 WNW 19 24 10 13 1025.3 1025.3 0.0
19/07:30am 9.6 5.1 6.0 78 1.7 WNW 19 32 10 17 1025.4 1025.4 0.0
19/07:00am 9.2 4.9 5.4 77 1.7 WNW 17 20 9 11 1025.4 1025.4 0.0
19/06:30am 8.8 4.4 5.0 77 1.7 WNW 17 28 9 15 1025.6 1025.6 0.0
19/06:00am 8.4 4.8 4.8 78 1.6 WNW 13 15 7 8 1025.8 1025.8 0.0
19/05:30am 7.7 3.6 4.3 79 1.5 WNW 15 19 8 10 1025.8 1025.8 0.0
19/05:00am 7.9 3.8 4.1 77 1.6 WNW 15 17 8 9 1025.8 1025.8 0.0
19/04:30am 8.6 3.8 4.4 75 1.9 WNW 19 24 10 13 1025.9 1025.9 0.0
19/04:00am 8.5 3.6 4.1 74 1.9 W 19 24 10 13 1026.3 1026.3 0.0
19/03:30am 8.2 3.7 4.0 75 1.8 W 17 20 9 11 1026.6 1026.6 0.0
19/03:00am 7.4 4.0 3.8 78 1.5 WNW 11 15 6 8 1026.8 1026.8 0.0
19/02:30am 7.3 3.0 3.5 77 1.6 WNW 15 19 8 10 1026.8 1026.8 0.0
19/02:00am 6.9 3.1 3.7 80 1.4 WNW 13 15 7 8 1027.5 1027.5 0.0
19/01:30am 6.5 2.5 3.1 79 1.4 WNW 13 15 7 8 1027.8 1027.8 0.0
19/01:00am 6.1 1.7 2.7 79 1.4 WNW 15 17 8 9 1028.1 1028.1 0.0
19/12:30am 5.9 1.5 2.7 80 1.3 WNW 15 17 8 9 1028.4 1028.4 0.0
19/12:00am 5.4 1.0 2.6 82 1.1 WNW 15 15 8 8 1028.8 1028.9 0.0
 
Date/Time
EST
Temp
°C
App
Temp
°C
Dew
Point
°C
Rel
Hum
%
Delta-T
°C
Wind Press
QNH
hPa
Press
MSL
hPa
Rain since
9am
mm
Dir  Spd
km/h
Gust
km/h
Spd
kts
Gust
kts
18/11:30pm 5.2 1.1 2.4 82 1.1 WNW 13 17 7 9 1029.0 1029.1 0.0
18/11:00pm 5.1 0.6 2.1 81 1.2 WNW 15 15 8 8 1029.2 1029.3 0.0
18/10:30pm 5.3 1.2 2.3 81 1.2 WNW 13 15 7 8 1029.5 1029.6 0.0
18/10:00pm 5.0 0.9 2.2 82 1.1 WNW 13 15 7 8 1029.7 1029.8 0.0
18/09:30pm 4.7 0.2 1.9 82 1.1 WNW 15 17 8 9 1030.0 1030.1 0.0
18/09:00pm 4.7 0.9 1.6 80 1.2 NW 11 13 6 7 1029.9 1030.0 0.0
18/08:30pm 5.1 3.0 1.6 78 1.4 N 2 7 1 4 1030.1 1030.2 0.0
18/08:00pm 7.7 6.1 2.4 69 2.2 CALM 0 0 0 0 1030.4 1030.5 0.0
18/07:30pm 7.6 5.9 1.9 67 2.4 CALM 0 0 0 0 1030.4 1030.5 0.0
18/07:00pm 8.0 5.5 1.8 65 2.5 SSW 4 7 2 4 1030.5 1030.6 0.0
18/06:30pm 7.8 6.0 1.4 64 2.6 CALM 0 4 0 2 1030.6 1030.7 0.0
18/06:00pm 8.2 5.1 1.6 63 2.7 SSW 7 9 4 5 1030.4 1030.5 0.0
18/05:30pm 8.9 5.5 1.6 60 3.0 S 9 11 5 6 1030.5 1030.6 0.0
18/05:00pm 10.2 6.1 2.3 58 3.3 S 13 17 7 9 1030.6 1030.7 0.0
18/04:30pm 11.4 7.2 1.9 52 4.1 SSW 13 17 7 9 1030.9 1031.0 0.0
18/04:00pm 11.9 7.0 2.1 51 4.2 SSW 17 24 9 13 1031.0 1031.1 0.0
18/03:30pm 12.1 7.1 1.4 48 4.6 S 17 26 9 14 1031.0 1031.1 0.0
18/03:00pm 12.3 6.9 1.0 46 4.7 S 19 30 10 16 1031.0 1031.1 0.0
18/02:30pm 12.6 7.0 1.0 45 4.9 SSW 20 30 11 16 1031.2 1031.3 0.0
18/02:00pm 12.4 6.8 1.1 46 4.8 S 20 28 11 15 1031.4 1031.5 0.0
18/01:30pm 12.7 6.8 1.7 47 4.7 S 22 33 12 18 1031.8 1031.9 0.0
18/01:00pm 12.4 6.9 1.7 48 4.6 SSE 20 30 11 16 1031.7 1031.8 0.0
18/12:30pm 12.4 7.0 1.1 46 4.8 SSE 19 28 10 15 1032.2 1032.3 0.0
18/12:00pm 12.2 6.0 2.1 50 4.3 S 24 33 13 18 1032.9 1033.0 0.0
18/11:30am 12.3 5.8 2.5 51 4.3 S 26 35 14 19 1033.5 1033.5 0.0

Other formats

Comma delimited format used in spreadsheet applications
http://www.bom.gov.au/fwo/IDV60801/IDV60801.94866.axf

JavaScript Object Notation format (JSON) in row-major order
http://www.bom.gov.au/fwo/IDV60801/IDV60801.94866.json

Data quality

Most of these data are generated automatically and are frequently updated. Quality checks on data are not normally performed. It is possible for incorrect values to appear. Refer to information at About Latest Weather Observations and please check the disclaimer before using these data.